sensor_id;sensor_type;location;lat;lon;timestamp;P1;durP1;ratioP1;P2;durP2;ratioP2
77544;SDS011;66672;50.328;7.610;2023-11-19T00:00:25;15.70;;;14.73;;
77544;SDS011;66672;50.328;7.610;2023-11-19T00:02:50;15.70;;;14.60;;
77544;SDS011;66672;50.328;7.610;2023-11-19T00:05:16;15.63;;;14.73;;
77544;SDS011;66672;50.328;7.610;2023-11-19T00:07:41;15.85;;;14.95;;
77544;SDS011;66672;50.328;7.610;2023-11-19T00:10:07;15.23;;;14.32;;
77544;SDS011;66672;50.328;7.610;2023-11-19T00:12:34;15.25;;;14.40;;
77544;SDS011;66672;50.328;7.610;2023-11-19T00:14:59;16.00;;;15.07;;
77544;SDS011;66672;50.328;7.610;2023-11-19T00:17:25;15.27;;;14.38;;
77544;SDS011;66672;50.328;7.610;2023-11-19T00:19:50;15.85;;;14.90;;
77544;SDS011;66672;50.328;7.610;2023-11-19T00:22:16;16.13;;;15.23;;
77544;SDS011;66672;50.328;7.610;2023-11-19T00:24:41;16.05;;;15.05;;
77544;SDS011;66672;50.328;7.610;2023-11-19T00:27:06;16.20;;;15.30;;
77544;SDS011;66672;50.328;7.610;2023-11-19T00:29:33;16.50;;;15.50;;
77544;SDS011;66672;50.328;7.610;2023-11-19T00:31:58;16.55;;;15.65;;
77544;SDS011;66672;50.328;7.610;2023-11-19T00:34:23;16.05;;;15.15;;
77544;SDS011;66672;50.328;7.610;2023-11-19T00:36:48;16.00;;;15.10;;
77544;SDS011;66672;50.328;7.610;2023-11-19T00:39:14;16.10;;;15.20;;
77544;SDS011;66672;50.328;7.610;2023-11-19T00:41:40;16.33;;;15.23;;
77544;SDS011;66672;50.328;7.610;2023-11-19T00:44:05;15.85;;;14.95;;
77544;SDS011;66672;50.328;7.610;2023-11-19T00:46:30;15.60;;;14.70;;
77544;SDS011;66672;50.328;7.610;2023-11-19T00:48:56;15.65;;;14.73;;
77544;SDS011;66672;50.328;7.610;2023-11-19T00:51:23;15.77;;;14.88;;
77544;SDS011;66672;50.328;7.610;2023-11-19T00:53:49;15.82;;;14.82;;
77544;SDS011;66672;50.328;7.610;2023-11-19T00:56:14;15.65;;;14.75;;
77544;SDS011;66672;50.328;7.610;2023-11-19T00:58:39;15.73;;;14.82;;
77544;SDS011;66672;50.328;7.610;2023-11-19T01:01:04;16.25;;;15.25;;
77544;SDS011;66672;50.328;7.610;2023-11-19T01:03:30;16.23;;;15.30;;
77544;SDS011;66672;50.328;7.610;2023-11-19T01:05:55;16.05;;;15.13;;
77544;SDS011;66672;50.328;7.610;2023-11-19T01:08:20;16.20;;;15.30;;
77544;SDS011;66672;50.328;7.610;2023-11-19T01:10:46;16.17;;;15.27;;
77544;SDS011;66672;50.328;7.610;2023-11-19T01:13:11;16.50;;;15.60;;
77544;SDS011;66672;50.328;7.610;2023-11-19T01:15:36;16.27;;;15.38;;
77544;SDS011;66672;50.328;7.610;2023-11-19T01:18:01;16.90;;;16.00;;
77544;SDS011;66672;50.328;7.610;2023-11-19T01:20:29;16.83;;;15.82;;
77544;SDS011;66672;50.328;7.610;2023-11-19T01:22:55;16.27;;;15.38;;
77544;SDS011;66672;50.328;7.610;2023-11-19T01:25:20;16.15;;;15.25;;
77544;SDS011;66672;50.328;7.610;2023-11-19T01:27:45;16.13;;;15.23;;
77544;SDS011;66672;50.328;7.610;2023-11-19T01:30:10;16.33;;;15.43;;
77544;SDS011;66672;50.328;7.610;2023-11-19T01:32:38;15.90;;;15.00;;
77544;SDS011;66672;50.328;7.610;2023-11-19T01:35:03;15.68;;;14.68;;
77544;SDS011;66672;50.328;7.610;2023-11-19T01:37:29;15.57;;;14.70;;
77544;SDS011;66672;50.328;7.610;2023-11-19T01:39:54;15.20;;;14.40;;
77544;SDS011;66672;50.328;7.610;2023-11-19T01:42:19;15.20;;;14.30;;
77544;SDS011;66672;50.328;7.610;2023-11-19T01:44:54;15.60;;;14.70;;
77544;SDS011;66672;50.328;7.610;2023-11-19T01:47:20;15.27;;;14.38;;
77544;SDS011;66672;50.328;7.610;2023-11-19T01:49:45;14.88;;;14.07;;
77544;SDS011;66672;50.328;7.610;2023-11-19T01:52:10;15.07;;;14.27;;
77544;SDS011;66672;50.328;7.610;2023-11-19T01:54:35;15.65;;;14.75;;
77544;SDS011;66672;50.328;7.610;2023-11-19T01:57:01;16.45;;;15.55;;
77544;SDS011;66672;50.328;7.610;2023-11-19T01:59:26;16.08;;;15.18;;
77544;SDS011;66672;50.328;7.610;2023-11-19T02:01:53;16.13;;;15.23;;
77544;SDS011;66672;50.328;7.610;2023-11-19T02:04:19;15.85;;;14.95;;
77544;SDS011;66672;50.328;7.610;2023-11-19T02:06:44;15.57;;;14.68;;
77544;SDS011;66672;50.328;7.610;2023-11-19T02:09:10;15.48;;;14.65;;
77544;SDS011;66672;50.328;7.610;2023-11-19T02:11:35;16.45;;;15.05;;
77544;SDS011;66672;50.328;7.610;2023-11-19T02:14:00;15.85;;;14.95;;
77544;SDS011;66672;50.328;7.610;2023-11-19T02:16:26;16.10;;;15.20;;
77544;SDS011;66672;50.328;7.610;2023-11-19T02:18:51;16.52;;;15.63;;
77544;SDS011;66672;50.328;7.610;2023-11-19T02:21:16;15.77;;;14.88;;
77544;SDS011;66672;50.328;7.610;2023-11-19T02:23:43;15.35;;;14.52;;
77544;SDS011;66672;50.328;7.610;2023-11-19T02:28:33;15.70;;;14.80;;
77544;SDS011;66672;50.328;7.610;2023-11-19T02:31:00;15.90;;;15.00;;
77544;SDS011;66672;50.328;7.610;2023-11-19T02:33:25;16.73;;;15.60;;
77544;SDS011;66672;50.328;7.610;2023-11-19T02:35:50;16.50;;;15.60;;
77544;SDS011;66672;50.328;7.610;2023-11-19T02:38:16;15.82;;;14.93;;
77544;SDS011;66672;50.328;7.610;2023-11-19T02:40:41;15.75;;;14.88;;
77544;SDS011;66672;50.328;7.610;2023-11-19T02:43:07;15.70;;;14.80;;
77544;SDS011;66672;50.328;7.610;2023-11-19T02:45:33;15.90;;;15.00;;
77544;SDS011;66672;50.328;7.610;2023-11-19T02:47:58;16.65;;;15.75;;
77544;SDS011;66672;50.328;7.610;2023-11-19T02:50:26;16.80;;;15.90;;
77544;SDS011;66672;50.328;7.610;2023-11-19T02:52:52;16.08;;;15.18;;
77544;SDS011;66672;50.328;7.610;2023-11-19T02:55:18;15.73;;;14.82;;
77544;SDS011;66672;50.328;7.610;2023-11-19T02:57:44;15.65;;;14.75;;
77544;SDS011;66672;50.328;7.610;2023-11-19T03:00:16;15.50;;;14.70;;
77544;SDS011;66672;50.328;7.610;2023-11-19T03:02:42;15.80;;;15.00;;
77544;SDS011;66672;50.328;7.610;2023-11-19T03:05:19;16.02;;;15.13;;
77544;SDS011;66672;50.328;7.610;2023-11-19T03:07:44;16.50;;;15.60;;
77544;SDS011;66672;50.328;7.610;2023-11-19T03:10:10;16.55;;;15.65;;
77544;SDS011;66672;50.328;7.610;2023-11-19T03:12:38;16.02;;;15.13;;
77544;SDS011;66672;50.328;7.610;2023-11-19T03:15:04;15.80;;;14.73;;
77544;SDS011;66672;50.328;7.610;2023-11-19T03:17:29;15.60;;;14.70;;
77544;SDS011;66672;50.328;7.610;2023-11-19T03:19:55;16.50;;;15.57;;
77544;SDS011;66672;50.328;7.610;2023-11-19T03:22:20;17.17;;;16.27;;
77544;SDS011;66672;50.328;7.610;2023-11-19T03:24:45;16.58;;;15.68;;
77544;SDS011;66672;50.328;7.610;2023-11-19T03:27:11;15.15;;;14.35;;
77544;SDS011;66672;50.328;7.610;2023-11-19T03:29:36;15.30;;;14.50;;
77544;SDS011;66672;50.328;7.610;2023-11-19T03:32:01;16.30;;;15.40;;
77544;SDS011;66672;50.328;7.610;2023-11-19T03:34:26;16.48;;;15.57;;
77544;SDS011;66672;50.328;7.610;2023-11-19T03:36:51;16.40;;;15.40;;
77544;SDS011;66672;50.328;7.610;2023-11-19T03:39:17;15.43;;;14.52;;
77544;SDS011;66672;50.328;7.610;2023-11-19T03:41:45;15.55;;;14.65;;
77544;SDS011;66672;50.328;7.610;2023-11-19T03:44:10;15.60;;;14.70;;
77544;SDS011;66672;50.328;7.610;2023-11-19T03:46:35;16.35;;;15.45;;
77544;SDS011;66672;50.328;7.610;2023-11-19T03:49:01;15.70;;;14.80;;
77544;SDS011;66672;50.328;7.610;2023-11-19T03:51:26;15.68;;;14.77;;
77544;SDS011;66672;50.328;7.610;2023-11-19T03:53:52;15.52;;;14.63;;
77544;SDS011;66672;50.328;7.610;2023-11-19T03:56:17;16.55;;;15.52;;
77544;SDS011;66672;50.328;7.610;2023-11-19T03:58:42;16.48;;;15.57;;
77544;SDS011;66672;50.328;7.610;2023-11-19T04:01:11;16.42;;;15.52;;
77544;SDS011;66672;50.328;7.610;2023-11-19T04:03:38;16.10;;;15.20;;
77544;SDS011;66672;50.328;7.610;2023-11-19T04:06:03;15.95;;;15.05;;
77544;SDS011;66672;50.328;7.610;2023-11-19T04:08:29;16.23;;;15.32;;
77544;SDS011;66672;50.328;7.610;2023-11-19T04:10:54;17.20;;;16.20;;
77544;SDS011;66672;50.328;7.610;2023-11-19T04:13:19;17.30;;;15.88;;
77544;SDS011;66672;50.328;7.610;2023-11-19T04:15:45;15.98;;;14.98;;
77544;SDS011;66672;50.328;7.610;2023-11-19T04:18:10;16.00;;;15.10;;
77544;SDS011;66672;50.328;7.610;2023-11-19T04:20:35;17.00;;;16.10;;
77544;SDS011;66672;50.328;7.610;2023-11-19T04:23:01;16.92;;;16.02;;
77544;SDS011;66672;50.328;7.610;2023-11-19T04:25:26;16.17;;;15.27;;
77544;SDS011;66672;50.328;7.610;2023-11-19T04:27:52;15.90;;;15.00;;
77544;SDS011;66672;50.328;7.610;2023-11-19T04:30:17;16.70;;;15.70;;
77544;SDS011;66672;50.328;7.610;2023-11-19T04:32:43;17.50;;;16.50;;
77544;SDS011;66672;50.328;7.610;2023-11-19T04:35:08;16.70;;;15.80;;
77544;SDS011;66672;50.328;7.610;2023-11-19T04:37:34;16.35;;;15.45;;
77544;SDS011;66672;50.328;7.610;2023-11-19T04:39:59;16.10;;;15.20;;
77544;SDS011;66672;50.328;7.610;2023-11-19T04:42:24;17.08;;;16.08;;
77544;SDS011;66672;50.328;7.610;2023-11-19T04:44:50;17.20;;;16.20;;
77544;SDS011;66672;50.328;7.610;2023-11-19T04:47:15;16.92;;;15.93;;
77544;SDS011;66672;50.328;7.610;2023-11-19T04:49:40;15.95;;;15.05;;
77544;SDS011;66672;50.328;7.610;2023-11-19T04:52:07;16.85;;;15.63;;
77544;SDS011;66672;50.328;7.610;2023-11-19T04:54:33;17.42;;;16.42;;
77544;SDS011;66672;50.328;7.610;2023-11-19T04:56:58;16.75;;;15.85;;
77544;SDS011;66672;50.328;7.610;2023-11-19T04:59:23;16.58;;;15.57;;
77544;SDS011;66672;50.328;7.610;2023-11-19T05:01:48;16.40;;;15.50;;
77544;SDS011;66672;50.328;7.610;2023-11-19T05:04:13;17.30;;;16.40;;
77544;SDS011;66672;50.328;7.610;2023-11-19T05:06:38;16.98;;;16.08;;
77544;SDS011;66672;50.328;7.610;2023-11-19T05:09:04;15.82;;;14.93;;
77544;SDS011;66672;50.328;7.610;2023-11-19T05:11:38;15.88;;;14.98;;
77544;SDS011;66672;50.328;7.610;2023-11-19T05:14:04;17.02;;;16.02;;
77544;SDS011;66672;50.328;7.610;2023-11-19T05:16:29;17.13;;;16.13;;
77544;SDS011;66672;50.328;7.610;2023-11-19T05:18:54;16.33;;;15.43;;
77544;SDS011;66672;50.328;7.610;2023-11-19T05:21:19;16.88;;;15.88;;
77544;SDS011;66672;50.328;7.610;2023-11-19T05:23:44;16.55;;;15.65;;
77544;SDS011;66672;50.328;7.610;2023-11-19T05:26:16;17.15;;;16.25;;
77544;SDS011;66672;50.328;7.610;2023-11-19T05:28:41;17.98;;;16.98;;
77544;SDS011;66672;50.328;7.610;2023-11-19T05:31:07;16.95;;;15.95;;
77544;SDS011;66672;50.328;7.610;2023-11-19T05:33:32;16.60;;;15.65;;
77544;SDS011;66672;50.328;7.610;2023-11-19T05:35:57;17.77;;;16.67;;
77544;SDS011;66672;50.328;7.610;2023-11-19T05:38:22;18.15;;;17.15;;
77544;SDS011;66672;50.328;7.610;2023-11-19T05:40:48;17.17;;;16.08;;
77544;SDS011;66672;50.328;7.610;2023-11-19T05:43:14;17.23;;;16.20;;
77544;SDS011;66672;50.328;7.610;2023-11-19T05:45:41;16.80;;;15.70;;
77544;SDS011;66672;50.328;7.610;2023-11-19T05:48:06;17.00;;;16.00;;
77544;SDS011;66672;50.328;7.610;2023-11-19T05:50:32;17.70;;;16.70;;
77544;SDS011;66672;50.328;7.610;2023-11-19T05:52:57;18.20;;;17.02;;
77544;SDS011;66672;50.328;7.610;2023-11-19T05:55:23;16.98;;;15.98;;
77544;SDS011;66672;50.328;7.610;2023-11-19T05:57:49;17.13;;;16.13;;
77544;SDS011;66672;50.328;7.610;2023-11-19T06:00:16;17.13;;;16.00;;
77544;SDS011;66672;50.328;7.610;2023-11-19T06:02:42;17.60;;;16.60;;
77544;SDS011;66672;50.328;7.610;2023-11-19T06:05:08;16.97;;;15.87;;
77544;SDS011;66672;50.328;7.610;2023-11-19T06:07:34;16.67;;;15.57;;
77544;SDS011;66672;50.328;7.610;2023-11-19T06:10:00;16.52;;;15.43;;
77544;SDS011;66672;50.328;7.610;2023-11-19T06:12:25;24.70;;;22.52;;
77544;SDS011;66672;50.328;7.610;2023-11-19T06:14:52;18.15;;;16.83;;
77544;SDS011;66672;50.328;7.610;2023-11-19T06:17:17;17.08;;;15.98;;
77544;SDS011;66672;50.328;7.610;2023-11-19T06:19:43;16.67;;;15.57;;
77544;SDS011;66672;50.328;7.610;2023-11-19T06:22:08;16.98;;;15.82;;
77544;SDS011;66672;50.328;7.610;2023-11-19T06:24:33;17.27;;;16.27;;
77544;SDS011;66672;50.328;7.610;2023-11-19T06:26:58;17.50;;;16.30;;
77544;SDS011;66672;50.328;7.610;2023-11-19T06:29:24;17.08;;;15.98;;
77544;SDS011;66672;50.328;7.610;2023-11-19T06:31:49;17.38;;;16.27;;
77544;SDS011;66672;50.328;7.610;2023-11-19T06:34:15;18.27;;;17.13;;
77544;SDS011;66672;50.328;7.610;2023-11-19T06:36:40;17.73;;;16.42;;
77544;SDS011;66672;50.328;7.610;2023-11-19T06:39:05;17.20;;;15.93;;
77544;SDS011;66672;50.328;7.610;2023-11-19T06:41:32;21.25;;;19.65;;
77544;SDS011;66672;50.328;7.610;2023-11-19T06:43:57;23.95;;;21.60;;
77544;SDS011;66672;50.328;7.610;2023-11-19T06:46:22;17.00;;;15.68;;
77544;SDS011;66672;50.328;7.610;2023-11-19T06:48:47;17.75;;;16.40;;
77544;SDS011;66672;50.328;7.610;2023-11-19T06:51:12;18.60;;;17.10;;
77544;SDS011;66672;50.328;7.610;2023-11-19T06:53:38;17.75;;;16.48;;
77544;SDS011;66672;50.328;7.610;2023-11-19T06:56:05;18.08;;;16.63;;
77544;SDS011;66672;50.328;7.610;2023-11-19T06:58:31;19.25;;;17.75;;
77544;SDS011;66672;50.328;7.610;2023-11-19T07:00:57;18.38;;;16.92;;
77544;SDS011;66672;50.328;7.610;2023-11-19T07:03:22;18.60;;;17.08;;
77544;SDS011;66672;50.328;7.610;2023-11-19T07:05:47;18.83;;;17.45;;
77544;SDS011;66672;50.328;7.610;2023-11-19T07:08:13;18.65;;;17.25;;
77544;SDS011;66672;50.328;7.610;2023-11-19T07:10:38;18.83;;;17.33;;
77544;SDS011;66672;50.328;7.610;2023-11-19T07:13:04;19.05;;;17.70;;
77544;SDS011;66672;50.328;7.610;2023-11-19T07:15:30;18.50;;;17.02;;
77544;SDS011;66672;50.328;7.610;2023-11-19T07:17:56;19.40;;;17.83;;
77544;SDS011;66672;50.328;7.610;2023-11-19T07:20:23;18.33;;;16.85;;
77544;SDS011;66672;50.328;7.610;2023-11-19T07:22:48;19.67;;;17.90;;
77544;SDS011;66672;50.328;7.610;2023-11-19T07:25:13;25.13;;;22.75;;
77544;SDS011;66672;50.328;7.610;2023-11-19T07:27:39;18.98;;;17.30;;
77544;SDS011;66672;50.328;7.610;2023-11-19T07:30:05;19.50;;;17.80;;
77544;SDS011;66672;50.328;7.610;2023-11-19T07:32:32;19.08;;;17.58;;
77544;SDS011;66672;50.328;7.610;2023-11-19T07:34:57;19.30;;;17.90;;
77544;SDS011;66672;50.328;7.610;2023-11-19T07:37:23;20.58;;;18.77;;
77544;SDS011;66672;50.328;7.610;2023-11-19T07:39:48;18.95;;;17.55;;
77544;SDS011;66672;50.328;7.610;2023-11-19T07:42:13;19.05;;;17.73;;
77544;SDS011;66672;50.328;7.610;2023-11-19T07:44:38;36.05;;;19.00;;
77544;SDS011;66672;50.328;7.610;2023-11-19T07:47:03;18.92;;;17.52;;
77544;SDS011;66672;50.328;7.610;2023-11-19T07:49:29;19.45;;;17.85;;
77544;SDS011;66672;50.328;7.610;2023-11-19T07:51:55;19.50;;;17.70;;
77544;SDS011;66672;50.328;7.610;2023-11-19T07:54:21;18.42;;;16.85;;
77544;SDS011;66672;50.328;7.610;2023-11-19T07:56:46;20.23;;;18.60;;
77544;SDS011;66672;50.328;7.610;2023-11-19T07:59:11;19.58;;;18.00;;
77544;SDS011;66672;50.328;7.610;2023-11-19T08:01:36;19.25;;;17.60;;
77544;SDS011;66672;50.328;7.610;2023-11-19T08:04:02;19.48;;;17.80;;
77544;SDS011;66672;50.328;7.610;2023-11-19T08:06:27;18.17;;;16.90;;
77544;SDS011;66672;50.328;7.610;2023-11-19T08:08:52;19.05;;;17.30;;
77544;SDS011;66672;50.328;7.610;2023-11-19T08:11:18;18.75;;;17.25;;
77544;SDS011;66672;50.328;7.610;2023-11-19T08:13:44;19.55;;;17.77;;
77544;SDS011;66672;50.328;7.610;2023-11-19T08:16:10;18.95;;;17.25;;
77544;SDS011;66672;50.328;7.610;2023-11-19T08:18:35;20.02;;;18.33;;
77544;SDS011;66672;50.328;7.610;2023-11-19T08:21:01;20.35;;;18.60;;
77544;SDS011;66672;50.328;7.610;2023-11-19T08:23:26;18.52;;;16.90;;
77544;SDS011;66672;50.328;7.610;2023-11-19T08:25:52;19.73;;;18.23;;
77544;SDS011;66672;50.328;7.610;2023-11-19T08:28:17;18.95;;;17.23;;
77544;SDS011;66672;50.328;7.610;2023-11-19T08:30:43;19.17;;;17.45;;
77544;SDS011;66672;50.328;7.610;2023-11-19T08:33:09;20.05;;;18.38;;
77544;SDS011;66672;50.328;7.610;2023-11-19T08:35:34;19.38;;;17.67;;
77544;SDS011;66672;50.328;7.610;2023-11-19T08:37:59;19.10;;;17.80;;
77544;SDS011;66672;50.328;7.610;2023-11-19T08:40:24;18.73;;;17.20;;
77544;SDS011;66672;50.328;7.610;2023-11-19T08:42:51;19.50;;;17.70;;
77544;SDS011;66672;50.328;7.610;2023-11-19T08:45:16;19.15;;;17.60;;
77544;SDS011;66672;50.328;7.610;2023-11-19T08:47:41;19.35;;;17.38;;
77544;SDS011;66672;50.328;7.610;2023-11-19T08:50:06;21.75;;;18.08;;
77544;SDS011;66672;50.328;7.610;2023-11-19T08:52:33;19.67;;;17.95;;
77544;SDS011;66672;50.328;7.610;2023-11-19T08:54:58;19.88;;;17.90;;
77544;SDS011;66672;50.328;7.610;2023-11-19T08:57:23;26.40;;;22.83;;
77544;SDS011;66672;50.328;7.610;2023-11-19T08:59:48;19.63;;;17.90;;
77544;SDS011;66672;50.328;7.610;2023-11-19T09:02:14;20.23;;;18.73;;
77544;SDS011;66672;50.328;7.610;2023-11-19T09:04:39;19.70;;;17.73;;
77544;SDS011;66672;50.328;7.610;2023-11-19T09:07:05;23.67;;;19.02;;
77544;SDS011;66672;50.328;7.610;2023-11-19T09:09:31;19.15;;;17.63;;
77544;SDS011;66672;50.328;7.610;2023-11-19T09:11:59;18.92;;;17.45;;
77544;SDS011;66672;50.328;7.610;2023-11-19T09:14:24;19.90;;;17.84;;
77544;SDS011;66672;50.328;7.610;2023-11-19T09:16:51;19.45;;;17.88;;
77544;SDS011;66672;50.328;7.610;2023-11-19T09:19:16;21.77;;;19.33;;
77544;SDS011;66672;50.328;7.610;2023-11-19T09:21:42;20.00;;;18.10;;
77544;SDS011;66672;50.328;7.610;2023-11-19T09:24:07;20.20;;;18.00;;
77544;SDS011;66672;50.328;7.610;2023-11-19T09:26:32;19.70;;;17.67;;
77544;SDS011;66672;50.328;7.610;2023-11-19T09:28:58;19.02;;;17.33;;
77544;SDS011;66672;50.328;7.610;2023-11-19T09:31:23;19.60;;;17.77;;
77544;SDS011;66672;50.328;7.610;2023-11-19T09:33:48;18.75;;;17.17;;
77544;SDS011;66672;50.328;7.610;2023-11-19T09:36:13;18.65;;;17.02;;
77544;SDS011;66672;50.328;7.610;2023-11-19T09:38:39;19.83;;;17.88;;
77544;SDS011;66672;50.328;7.610;2023-11-19T09:41:04;19.88;;;17.88;;
77544;SDS011;66672;50.328;7.610;2023-11-19T09:43:33;19.73;;;18.02;;
77544;SDS011;66672;50.328;7.610;2023-11-19T09:45:58;18.73;;;17.13;;
77544;SDS011;66672;50.328;7.610;2023-11-19T09:48:30;19.27;;;17.55;;
77544;SDS011;66672;50.328;7.610;2023-11-19T09:50:56;19.55;;;17.73;;
77544;SDS011;66672;50.328;7.610;2023-11-19T09:53:21;21.20;;;19.02;;
77544;SDS011;66672;50.328;7.610;2023-11-19T09:55:46;21.38;;;18.10;;
77544;SDS011;66672;50.328;7.610;2023-11-19T09:58:11;20.63;;;18.60;;
77544;SDS011;66672;50.328;7.610;2023-11-19T10:00:37;18.60;;;16.88;;
77544;SDS011;66672;50.328;7.610;2023-11-19T10:03:02;20.05;;;17.98;;
77544;SDS011;66672;50.328;7.610;2023-11-19T10:05:30;19.50;;;17.50;;
77544;SDS011;66672;50.328;7.610;2023-11-19T10:07:55;18.40;;;16.80;;
77544;SDS011;66672;50.328;7.610;2023-11-19T10:10:20;20.02;;;18.00;;
77544;SDS011;66672;50.328;7.610;2023-11-19T10:12:46;19.60;;;17.65;;
77544;SDS011;66672;50.328;7.610;2023-11-19T10:15:17;19.65;;;17.63;;
77544;SDS011;66672;50.328;7.610;2023-11-19T10:17:44;19.42;;;17.65;;
77544;SDS011;66672;50.328;7.610;2023-11-19T10:20:09;19.67;;;17.80;;
77544;SDS011;66672;50.328;7.610;2023-11-19T10:22:36;19.80;;;17.83;;
77544;SDS011;66672;50.328;7.610;2023-11-19T10:25:02;19.55;;;17.45;;
77544;SDS011;66672;50.328;7.610;2023-11-19T10:27:27;19.02;;;17.25;;
77544;SDS011;66672;50.328;7.610;2023-11-19T10:29:52;22.52;;;18.20;;
77544;SDS011;66672;50.328;7.610;2023-11-19T10:32:18;19.27;;;17.35;;
77544;SDS011;66672;50.328;7.610;2023-11-19T10:34:43;20.52;;;18.35;;
77544;SDS011;66672;50.328;7.610;2023-11-19T10:37:08;23.63;;;19.77;;
77544;SDS011;66672;50.328;7.610;2023-11-19T10:39:52;21.50;;;19.38;;
77544;SDS011;66672;50.328;7.610;2023-11-19T10:42:20;19.33;;;17.40;;
77544;SDS011;66672;50.328;7.610;2023-11-19T10:44:46;19.50;;;17.50;;
77544;SDS011;66672;50.328;7.610;2023-11-19T10:47:11;20.40;;;18.23;;
77544;SDS011;66672;50.328;7.610;2023-11-19T10:49:38;20.63;;;18.77;;
77544;SDS011;66672;50.328;7.610;2023-11-19T10:52:03;25.13;;;19.80;;
77544;SDS011;66672;50.328;7.610;2023-11-19T10:54:30;20.33;;;18.17;;
77544;SDS011;66672;50.328;7.610;2023-11-19T10:56:59;23.85;;;18.73;;
77544;SDS011;66672;50.328;7.610;2023-11-19T10:59:25;20.60;;;17.95;;
77544;SDS011;66672;50.328;7.610;2023-11-19T11:01:50;26.75;;;18.73;;
77544;SDS011;66672;50.328;7.610;2023-11-19T11:04:19;19.95;;;17.85;;
77544;SDS011;66672;50.328;7.610;2023-11-19T11:06:47;19.40;;;17.48;;
77544;SDS011;66672;50.328;7.610;2023-11-19T11:09:13;21.55;;;17.40;;
77544;SDS011;66672;50.328;7.610;2023-11-19T11:11:41;20.05;;;17.70;;
77544;SDS011;66672;50.328;7.610;2023-11-19T11:14:12;19.25;;;17.52;;
77544;SDS011;66672;50.328;7.610;2023-11-19T11:16:39;20.25;;;18.00;;
77544;SDS011;66672;50.328;7.610;2023-11-19T11:19:07;20.95;;;17.67;;
77544;SDS011;66672;50.328;7.610;2023-11-19T11:21:34;20.05;;;18.17;;
77544;SDS011;66672;50.328;7.610;2023-11-19T11:26:58;20.77;;;18.67;;
77544;SDS011;66672;50.328;7.610;2023-11-19T11:29:38;20.67;;;18.50;;
77544;SDS011;66672;50.328;7.610;2023-11-19T11:34:42;20.00;;;17.88;;
77544;SDS011;66672;50.328;7.610;2023-11-19T11:37:15;18.95;;;17.08;;
77544;SDS011;66672;50.328;7.610;2023-11-19T11:39:42;20.60;;;18.48;;
77544;SDS011;66672;50.328;7.610;2023-11-19T11:47:22;19.40;;;17.45;;
77544;SDS011;66672;50.328;7.610;2023-11-19T11:49:48;19.92;;;17.88;;
77544;SDS011;66672;50.328;7.610;2023-11-19T11:52:14;19.65;;;18.05;;
77544;SDS011;66672;50.328;7.610;2023-11-19T11:54:41;21.58;;;19.30;;
77544;SDS011;66672;50.328;7.610;2023-11-19T11:57:06;19.20;;;17.45;;
77544;SDS011;66672;50.328;7.610;2023-11-19T11:59:51;19.42;;;17.65;;
77544;SDS011;66672;50.328;7.610;2023-11-19T12:02:18;19.80;;;18.00;;
77544;SDS011;66672;50.328;7.610;2023-11-19T12:04:46;20.08;;;17.83;;
77544;SDS011;66672;50.328;7.610;2023-11-19T12:07:21;19.38;;;17.40;;
77544;SDS011;66672;50.328;7.610;2023-11-19T12:09:48;18.60;;;16.73;;
77544;SDS011;66672;50.328;7.610;2023-11-19T12:17:41;19.38;;;17.58;;
77544;SDS011;66672;50.328;7.610;2023-11-19T12:20:09;19.02;;;17.23;;
77544;SDS011;66672;50.328;7.610;2023-11-19T12:22:39;18.35;;;16.75;;
77544;SDS011;66672;50.328;7.610;2023-11-19T12:25:08;17.48;;;15.98;;
77544;SDS011;66672;50.328;7.610;2023-11-19T12:27:34;18.35;;;16.75;;
77544;SDS011;66672;50.328;7.610;2023-11-19T12:29:59;19.10;;;17.42;;
77544;SDS011;66672;50.328;7.610;2023-11-19T12:32:25;18.88;;;17.05;;
77544;SDS011;66672;50.328;7.610;2023-11-19T12:34:50;18.65;;;16.73;;
77544;SDS011;66672;50.328;7.610;2023-11-19T12:37:15;18.65;;;16.85;;
77544;SDS011;66672;50.328;7.610;2023-11-19T12:39:40;19.88;;;17.80;;
77544;SDS011;66672;50.328;7.610;2023-11-19T12:42:05;18.88;;;16.98;;
77544;SDS011;66672;50.328;7.610;2023-11-19T12:44:31;18.73;;;16.92;;
77544;SDS011;66672;50.328;7.610;2023-11-19T12:47:03;18.60;;;16.67;;
77544;SDS011;66672;50.328;7.610;2023-11-19T12:49:29;18.13;;;16.40;;
77544;SDS011;66672;50.328;7.610;2023-11-19T12:51:54;18.88;;;16.98;;
77544;SDS011;66672;50.328;7.610;2023-11-19T12:54:19;18.85;;;17.13;;
77544;SDS011;66672;50.328;7.610;2023-11-19T12:56:53;18.27;;;16.70;;
77544;SDS011;66672;50.328;7.610;2023-11-19T12:59:19;19.33;;;17.20;;
77544;SDS011;66672;50.328;7.610;2023-11-19T13:04:21;20.50;;;17.83;;
77544;SDS011;66672;50.328;7.610;2023-11-19T13:06:46;19.42;;;17.50;;
77544;SDS011;66672;50.328;7.610;2023-11-19T13:09:22;19.05;;;17.30;;
77544;SDS011;66672;50.328;7.610;2023-11-19T13:11:48;18.80;;;16.95;;
77544;SDS011;66672;50.328;7.610;2023-11-19T13:14:14;18.98;;;17.23;;
77544;SDS011;66672;50.328;7.610;2023-11-19T13:16:39;19.40;;;17.40;;
77544;SDS011;66672;50.328;7.610;2023-11-19T13:19:04;18.00;;;16.60;;
77544;SDS011;66672;50.328;7.610;2023-11-19T13:21:30;18.23;;;16.38;;
77544;SDS011;66672;50.328;7.610;2023-11-19T13:23:55;18.40;;;16.70;;
77544;SDS011;66672;50.328;7.610;2023-11-19T13:26:20;18.08;;;16.42;;
77544;SDS011;66672;50.328;7.610;2023-11-19T13:28:46;18.95;;;17.02;;
77544;SDS011;66672;50.328;7.610;2023-11-19T13:31:11;18.63;;;17.00;;
77544;SDS011;66672;50.328;7.610;2023-11-19T13:33:36;17.90;;;16.27;;
77544;SDS011;66672;50.328;7.610;2023-11-19T13:36:02;18.17;;;16.65;;
77544;SDS011;66672;50.328;7.610;2023-11-19T13:38:32;18.67;;;17.00;;
77544;SDS011;66672;50.328;7.610;2023-11-19T13:40:57;19.15;;;17.35;;
77544;SDS011;66672;50.328;7.610;2023-11-19T13:43:23;18.48;;;16.55;;
77544;SDS011;66672;50.328;7.610;2023-11-19T13:45:49;19.23;;;17.40;;
77544;SDS011;66672;50.328;7.610;2023-11-19T13:48:14;18.83;;;17.00;;
77544;SDS011;66672;50.328;7.610;2023-11-19T13:50:39;18.27;;;16.77;;
77544;SDS011;66672;50.328;7.610;2023-11-19T13:53:04;19.00;;;17.38;;
77544;SDS011;66672;50.328;7.610;2023-11-19T13:55:29;18.65;;;17.00;;
77544;SDS011;66672;50.328;7.610;2023-11-19T13:57:55;18.60;;;17.00;;
77544;SDS011;66672;50.328;7.610;2023-11-19T14:00:20;18.42;;;16.83;;
77544;SDS011;66672;50.328;7.610;2023-11-19T14:02:47;20.08;;;17.08;;
77544;SDS011;66672;50.328;7.610;2023-11-19T14:05:13;19.23;;;17.10;;
77544;SDS011;66672;50.328;7.610;2023-11-19T14:07:41;18.58;;;16.65;;
77544;SDS011;66672;50.328;7.610;2023-11-19T14:10:07;18.77;;;16.85;;
77544;SDS011;66672;50.328;7.610;2023-11-19T14:12:34;18.80;;;17.20;;
77544;SDS011;66672;50.328;7.610;2023-11-19T14:14:59;19.35;;;17.38;;
77544;SDS011;66672;50.328;7.610;2023-11-19T14:17:25;19.27;;;17.48;;
77544;SDS011;66672;50.328;7.610;2023-11-19T14:19:50;19.23;;;17.45;;
77544;SDS011;66672;50.328;7.610;2023-11-19T14:22:16;19.23;;;17.23;;
77544;SDS011;66672;50.328;7.610;2023-11-19T14:24:41;20.55;;;16.80;;
77544;SDS011;66672;50.328;7.610;2023-11-19T14:27:07;19.13;;;17.30;;
77544;SDS011;66672;50.328;7.610;2023-11-19T14:29:32;19.17;;;17.35;;
77544;SDS011;66672;50.328;7.610;2023-11-19T14:31:59;19.15;;;17.27;;
77544;SDS011;66672;50.328;7.610;2023-11-19T14:34:25;18.92;;;16.80;;